Time;durP1;ratioP1;P1;durP2;ratioP2;P2;SDS_P1;SDS_P2;PMS_P1;PMS_P2;Temp;Humidity;BMP_temperature;BMP_pressure;BME280_temperature;BME280_humidity;BME280_pressure;Samples;Min_cycle;Max_cycle;Signal;HPM_P1;HPM_P2
2022/12/02 00:01:20;;;;;;;27.95;20.52;;;;;;;;;;4953526;28;20024;-78
2022/12/02 00:03:48;;;;;;;24.40;19.40;;;;;;;;;;4949619;29;20039;-78
2022/12/02 00:06:24;;;;;;;26.40;18.08;;;;;;;;;;4953204;29;20039;-78
2022/12/02 00:08:50;;;;;;;;;;;;;;;;;;4948143;29;20027;-78
2022/12/02 00:11:26;;;;;;;34.83;20.83;;;;;;;;;;4951548;29;20296;-77
2022/12/02 00:13:51;;;;;;;36.78;23.27;;;;;;;;;;4952937;28;20482;-78
2022/12/02 00:16:21;;;;;;;28.70;18.20;;;;;;;;;;4952079;29;20027;-78
2022/12/02 00:18:50;;;;;;;27.90;18.75;;;;;;;;;;4949334;29;20390;-78
2022/12/02 00:21:19;;;;;;;25.30;17.05;;;;;;;;;;4947667;29;20027;-78
2022/12/02 00:23:52;;;;;;;28.85;21.27;;;;;;;;;;4952338;29;20062;-78
2022/12/02 00:26:21;;;;;;;29.10;18.17;;;;;;;;;;4945539;29;20023;-78
2022/12/02 00:28:46;;;;;;;26.73;17.65;;;;;;;;;;4944405;28;20584;-78
2022/12/02 00:31:12;;;;;;;24.60;16.48;;;;;;;;;;4944434;29;20023;-78
2022/12/02 00:33:43;;;;;;;30.40;19.25;;;;;;;;;;4936603;29;20413;-78
2022/12/02 00:36:09;;;;;;;35.28;19.02;;;;;;;;;;4927670;29;20035;-78
2022/12/02 00:38:37;;;;;;;25.80;20.00;;;;;;;;;;4947955;29;20086;-78
2022/12/02 00:41:05;;;;;;;25.02;17.30;;;;;;;;;;4940869;29;20058;-78
2022/12/02 00:46:33;;;;;;;27.77;18.50;;;;;;;;;;4971337;23;20065;-72
2022/12/02 00:49:00;;;;;;;28.52;20.15;;;;;;;;;;4932461;29;20310;-72
2022/12/02 00:51:32;;;;;;;23.85;15.68;;;;;;;;;;4967812;28;20035;-72
2022/12/02 00:53:58;;;;;;;26.13;20.75;;;;;;;;;;4934596;29;20492;-72
2022/12/02 00:56:24;;;;;;;30.23;18.05;;;;;;;;;;4953725;28;20038;-72
2022/12/02 00:58:53;;;;;;;27.80;17.98;;;;;;;;;;4956927;28;20031;-72
2022/12/02 01:01:20;;;;;;;27.10;18.77;;;;;;;;;;4951644;29;20028;-72
2022/12/02 01:03:50;;;;;;;27.80;18.48;;;;;;;;;;4952318;29;20035;-72
2022/12/02 01:06:17;;;;;;;35.45;19.02;;;;;;;;;;4936818;29;20031;-72
2022/12/02 01:08:45;;;;;;;32.15;20.70;;;;;;;;;;4949380;29;20766;-72
2022/12/02 01:11:16;;;;;;;28.98;20.05;;;;;;;;;;4930357;29;20027;-71
2022/12/02 01:13:44;;;;;;;24.10;16.15;;;;;;;;;;4953620;29;20027;-72
2022/12/02 01:16:18;;;;;;;32.28;20.63;;;;;;;;;;4950023;29;20133;-72
2022/12/02 01:18:47;;;;;;;30.42;22.63;;;;;;;;;;4945405;28;20031;-71
2022/12/02 01:21:13;;;;;;;25.58;19.52;;;;;;;;;;4948590;29;20639;-71
2022/12/02 01:23:43;;;;;;;25.77;17.88;;;;;;;;;;4949867;29;20039;-71
2022/12/02 01:26:14;;;;;;;26.35;19.67;;;;;;;;;;4951598;29;20042;-71
2022/12/02 01:28:40;;;;;;;27.92;19.00;;;;;;;;;;4951146;29;20039;-71
2022/12/02 01:31:06;;;;;;;22.80;17.35;;;;;;;;;;4952041;29;20039;-71
2022/12/02 01:33:41;;;;;;;26.03;18.17;;;;;;;;;;4948192;29;20497;-71
2022/12/02 01:36:09;;;;;;;26.23;16.42;;;;;;;;;;4952552;29;20034;-71
2022/12/02 01:38:35;;;;;;;23.95;18.05;;;;;;;;;;4949502;28;20070;-71
2022/12/02 01:41:08;;;;;;;26.77;20.30;;;;;;;;;;4952829;29;20043;-71
2022/12/02 01:43:37;;;;;;;28.67;16.60;;;;;;;;;;4932094;29;20035;-71
2022/12/02 01:46:07;;;;;;;30.35;20.35;;;;;;;;;;4950209;29;20390;-71
2022/12/02 01:48:35;;;;;;;29.17;18.33;;;;;;;;;;4932791;29;20031;-72
2022/12/02 01:51:03;;;;;;;27.88;16.90;;;;;;;;;;4947598;29;20027;-72
2022/12/02 01:53:31;;;;;;;26.50;19.15;;;;;;;;;;4950837;29;20026;-71
2022/12/02 01:55:59;;;;;;;27.38;16.60;;;;;;;;;;4940942;29;20046;-71
2022/12/02 01:58:29;;;;;;;22.35;16.35;;;;;;;;;;4949283;29;20035;-71
2022/12/02 02:00:57;;;;;;;28.73;19.70;;;;;;;;;;4950902;29;20035;-71
2022/12/02 02:03:27;;;;;;;28.45;17.88;;;;;;;;;;4948146;29;20031;-71
2022/12/02 02:05:55;;;;;;;27.17;16.50;;;;;;;;;;4949504;29;20035;-72
2022/12/02 02:08:26;;;;;;;20.60;14.80;;;;;;;;;;4930864;29;20039;-71
2022/12/02 02:10:52;;;;;;;25.33;17.88;;;;;;;;;;4949329;29;20032;-71
2022/12/02 02:13:23;;;;;;;25.65;18.60;;;;;;;;;;4950335;29;20031;-71
2022/12/02 02:15:48;;;;;;;31.20;19.80;;;;;;;;;;4949933;29;20044;-72
2022/12/02 02:18:17;;;;;;;24.75;17.05;;;;;;;;;;4933764;29;20027;-72
2022/12/02 02:20:47;;;;;;;23.88;16.98;;;;;;;;;;4948395;29;20397;-71
2022/12/02 02:23:16;;;;;;;23.95;17.05;;;;;;;;;;4936482;29;20039;-71
2022/12/02 02:25:46;;;;;;;29.65;18.92;;;;;;;;;;4945708;29;20034;-71
2022/12/02 02:28:14;;;;;;;24.88;13.60;;;;;;;;;;4947094;28;20031;-71
2022/12/02 02:30:40;;;;;;;24.25;17.88;;;;;;;;;;4950878;29;20038;-71
2022/12/02 02:33:10;;;;;;;25.05;16.00;;;;;;;;;;4949939;29;20482;-71
2022/12/02 02:35:41;;;;;;;22.48;15.48;;;;;;;;;;4948539;29;20027;-71
2022/12/02 02:38:09;;;;;;;23.10;15.68;;;;;;;;;;4962849;28;20394;-71
2022/12/02 02:40:37;;;;;;;23.65;16.38;;;;;;;;;;4949807;29;20038;-72
2022/12/02 02:43:06;;;;;;;24.88;16.60;;;;;;;;;;4947841;29;20032;-71
2022/12/02 02:45:36;;;;;;;24.45;15.70;;;;;;;;;;4932200;29;20061;-71
2022/12/02 02:48:05;;;;;;;26.48;17.25;;;;;;;;;;4949397;29;20394;-71
2022/12/02 02:50:32;;;;;;;26.08;16.25;;;;;;;;;;4948200;28;20043;-72
2022/12/02 02:53:02;;;;;;;28.05;18.02;;;;;;;;;;4927161;29;20036;-71
2022/12/02 02:55:31;;;;;;;32.45;17.67;;;;;;;;;;4934932;29;20039;-71
2022/12/02 02:58:28;;;;;;;28.67;17.00;;;;;;;;;;4949581;29;20064;-71
2022/12/02 03:01:00;;;;;;;21.80;14.73;;;;;;;;;;4935639;29;20409;-71
2022/12/02 03:03:30;;;;;;;27.65;18.60;;;;;;;;;;4949154;29;20050;-71
2022/12/02 03:06:02;;;;;;;26.63;17.52;;;;;;;;;;4932386;29;20042;-71
2022/12/02 03:08:30;;;;;;;27.45;17.52;;;;;;;;;;4948761;29;20028;-71
2022/12/02 03:11:00;;;;;;;28.58;16.50;;;;;;;;;;4950297;29;20030;-71
2022/12/02 03:13:28;;;;;;;26.50;17.25;;;;;;;;;;4950133;29;20027;-71
2022/12/02 03:15:56;;;;;;;28.10;14.43;;;;;;;;;;4950553;29;20031;-72
2022/12/02 03:18:27;;;;;;;25.60;13.60;;;;;;;;;;4949957;29;20035;-71
2022/12/02 03:20:58;;;;;;;21.90;15.80;;;;;;;;;;4953909;28;20042;-71
2022/12/02 03:23:29;;;;;;;24.23;16.48;;;;;;;;;;4953716;29;20469;-71
2022/12/02 03:25:55;;;;;;;24.25;15.40;;;;;;;;;;4954073;29;20038;-71
2022/12/02 03:28:23;;;;;;;22.23;14.88;;;;;;;;;;4953189;29;20054;-71
2022/12/02 03:30:52;;;;;;;20.85;18.42;;;;;;;;;;4953648;29;20381;-71
2022/12/02 03:33:18;;;;;;;29.40;19.50;;;;;;;;;;4954370;29;20028;-71
2022/12/02 03:35:43;;;;;;;23.80;18.10;;;;;;;;;;4951998;29;20516;-71
2022/12/02 03:38:12;;;;;;;23.88;15.75;;;;;;;;;;4955343;29;20044;-71
2022/12/02 03:40:43;;;;;;;21.30;15.38;;;;;;;;;;4951747;29;20027;-72
2022/12/02 03:43:11;;;;;;;30.13;16.92;;;;;;;;;;4953655;29;20389;-71
2022/12/02 03:45:37;;;;;;;30.52;19.75;;;;;;;;;;4952162;29;20042;-71
2022/12/02 03:48:03;;;;;;;22.70;16.80;;;;;;;;;;4926458;29;20047;-71
2022/12/02 03:50:33;;;;;;;23.77;17.52;;;;;;;;;;4948569;29;20039;-71
2022/12/02 03:53:02;;;;;;;32.08;17.48;;;;;;;;;;4945303;28;20259;-71
2022/12/02 03:55:30;;;;;;;25.48;18.33;;;;;;;;;;4949544;29;20070;-70
2022/12/02 03:58:01;;;;;;;27.42;18.45;;;;;;;;;;4936028;29;20039;-71
2022/12/02 04:00:30;;;;;;;27.38;20.05;;;;;;;;;;4952794;29;20030;-71
2022/12/02 04:02:56;;;;;;;25.80;18.63;;;;;;;;;;4953308;29;20027;-71
2022/12/02 04:05:21;;;;;;;24.13;17.17;;;;;;;;;;4952897;28;20035;-71
2022/12/02 04:07:50;;;;;;;24.52;15.38;;;;;;;;;;4950652;29;20359;-71
2022/12/02 04:10:16;;;;;;;30.20;19.33;;;;;;;;;;4954215;29;20035;-71
2022/12/02 04:12:42;;;;;;;32.70;18.02;;;;;;;;;;4950672;29;20375;-71
2022/12/02 04:15:08;;;;;;;34.85;19.52;;;;;;;;;;4954405;29;20054;-71
2022/12/02 04:17:36;;;;;;;20.98;15.27;;;;;;;;;;4952122;29;20050;-71
2022/12/02 04:20:04;;;;;;;23.88;17.88;;;;;;;;;;4954675;29;20035;-71
2022/12/02 04:22:31;;;;;;;23.92;17.48;;;;;;;;;;4951935;28;20034;-71
2022/12/02 04:24:58;;;;;;;28.58;15.75;;;;;;;;;;4953317;29;20114;-71
2022/12/02 04:27:25;;;;;;;26.77;17.67;;;;;;;;;;4952566;29;20406;-71
2022/12/02 04:29:53;;;;;;;20.98;17.05;;;;;;;;;;4951589;29;20035;-71
2022/12/02 04:32:19;;;;;;;22.83;16.42;;;;;;;;;;4952055;28;20447;-71
2022/12/02 04:34:47;;;;;;;24.25;15.77;;;;;;;;;;4953360;29;20019;-71
2022/12/02 04:37:15;;;;;;;22.90;16.35;;;;;;;;;;4953673;29;20031;-71
2022/12/02 04:39:43;;;;;;;23.83;15.93;;;;;;;;;;4966232;28;20042;-71
2022/12/02 04:42:12;;;;;;;25.40;15.93;;;;;;;;;;4950768;29;20039;-71
2022/12/02 04:44:40;;;;;;;24.48;15.73;;;;;;;;;;4951981;28;20034;-71
2022/12/02 04:47:08;;;;;;;25.85;18.63;;;;;;;;;;4952292;29;20043;-71
2022/12/02 04:49:34;;;;;;;25.95;15.93;;;;;;;;;;4951578;29;20031;-71
2022/12/02 04:52:05;;;;;;;22.58;19.38;;;;;;;;;;4953489;29;20216;-71
2022/12/02 04:54:33;;;;;;;26.33;17.98;;;;;;;;;;4952169;29;20110;-71
2022/12/02 04:57:01;;;;;;;23.98;16.20;;;;;;;;;;4949697;29;20042;-71
2022/12/02 04:59:31;;;;;;;31.73;17.98;;;;;;;;;;4951408;29;20035;-71
2022/12/02 05:01:57;;;;;;;22.73;15.65;;;;;;;;;;4950656;29;20280;-71
2022/12/02 05:04:23;;;;;;;21.50;17.98;;;;;;;;;;4952068;28;20035;-71
2022/12/02 05:06:49;;;;;;;22.85;17.20;;;;;;;;;;4946959;29;20098;-71
2022/12/02 05:09:17;;;;;;;25.73;16.80;;;;;;;;;;4952105;29;20031;-71
2022/12/02 05:11:43;;;;;;;26.15;17.70;;;;;;;;;;4949852;29;20050;-71
2022/12/02 05:14:11;;;;;;;29.42;16.42;;;;;;;;;;4952185;28;20437;-71
2022/12/02 05:16:39;;;;;;;29.30;18.00;;;;;;;;;;4953036;29;20031;-71
2022/12/02 05:19:08;;;;;;;34.83;17.30;;;;;;;;;;4933018;29;20778;-72
2022/12/02 05:21:34;;;;;;;30.13;19.25;;;;;;;;;;4953556;29;20019;-72
2022/12/02 05:23:59;;;;;;;24.38;17.27;;;;;;;;;;4953100;29;20039;-72
2022/12/02 05:26:25;;;;;;;29.40;18.08;;;;;;;;;;4948659;28;20138;-72
2022/12/02 05:28:51;;;;;;;30.08;16.83;;;;;;;;;;4950116;29;20031;-70
2022/12/02 05:31:19;;;;;;;21.95;16.40;;;;;;;;;;4952150;29;20027;-71
2022/12/02 05:33:45;;;;;;;23.73;15.80;;;;;;;;;;4949652;29;20032;-71
2022/12/02 05:36:18;;;;;;;23.50;16.98;;;;;;;;;;4950023;29;20478;-70
2022/12/02 05:38:44;;;;;;;29.60;16.92;;;;;;;;;;4936518;29;20042;-71
2022/12/02 05:41:10;;;;;;;25.50;16.60;;;;;;;;;;4948531;29;20061;-72
2022/12/02 05:43:40;;;;;;;22.50;16.35;;;;;;;;;;4952209;28;20030;-72
2022/12/02 05:46:16;;;;;;;27.45;18.00;;;;;;;;;;4947692;29;20031;-72
2022/12/02 05:48:45;;;;;;;21.30;15.18;;;;;;;;;;4951595;29;20027;-71
2022/12/02 05:51:16;;;;;;;24.20;18.73;;;;;;;;;;4949216;29;20046;-71
2022/12/02 05:53:45;;;;;;;28.15;20.00;;;;;;;;;;4951708;29;20019;-71
2022/12/02 05:56:15;;;;;;;23.17;16.40;;;;;;;;;;4947271;29;20250;-72
2022/12/02 05:58:43;;;;;;;20.75;15.93;;;;;;;;;;4947641;28;20031;-72
2022/12/02 06:01:18;;;;;;;25.25;17.75;;;;;;;;;;4951368;29;20035;-72
2022/12/02 06:03:44;;;;;;;29.52;18.95;;;;;;;;;;4947408;29;20039;-72
2022/12/02 06:06:10;;;;;;;28.42;15.55;;;;;;;;;;4932545;29;20040;-72
2022/12/02 06:08:41;;;;;;;26.20;18.88;;;;;;;;;;4949667;29;20027;-72
2022/12/02 06:11:21;;;;;;;23.73;17.30;;;;;;;;;;4950857;29;20035;-72
2022/12/02 06:13:51;;;;;;;27.70;18.88;;;;;;;;;;4950755;29;20027;-71
2022/12/02 06:16:23;;;;;;;20.42;13.88;;;;;;;;;;4946562;29;20035;-72
2022/12/02 06:18:51;;;;;;;25.50;16.90;;;;;;;;;;4950563;29;20035;-72
2022/12/02 06:21:21;;;;;;;29.63;18.55;;;;;;;;;;4951784;29;20023;-72
2022/12/02 06:23:52;;;;;;;23.60;17.90;;;;;;;;;;4932229;29;20039;-72
2022/12/02 06:26:21;;;;;;;23.80;16.88;;;;;;;;;;4949391;29;20032;-72
2022/12/02 06:28:49;;;;;;;30.20;15.93;;;;;;;;;;4950415;29;20027;-71
2022/12/02 06:31:30;;;;;;;19.40;17.00;;;;;;;;;;4948544;29;20027;-72
2022/12/02 06:33:57;;;;;;;29.50;15.52;;;;;;;;;;4950736;29;20020;-71
2022/12/02 06:36:25;;;;;;;25.58;17.42;;;;;;;;;;4948515;29;20046;-71
2022/12/02 06:38:51;;;;;;;26.75;16.75;;;;;;;;;;4951525;29;20030;-73
2022/12/02 06:41:22;;;;;;;28.73;17.63;;;;;;;;;;4926341;29;20489;-72
2022/12/02 06:46:36;;;;;;;24.60;16.33;;;;;;;;;;4966099;23;20043;-78
2022/12/02 06:49:20;;;;;;;26.35;17.88;;;;;;;;;;4972562;28;20038;-78
2022/12/02 06:52:11;;;;;;;23.40;18.02;;;;;;;;;;4971617;28;20042;-77
2022/12/02 06:54:37;;;;;;;27.33;19.77;;;;;;;;;;4963657;28;20042;-77
2022/12/02 06:57:03;;;;;;;26.60;16.73;;;;;;;;;;4971685;28;20030;-77
2022/12/02 06:59:30;;;;;;;26.70;18.10;;;;;;;;;;4979407;28;20037;-77
2022/12/02 07:02:03;;;;;;;26.75;18.80;;;;;;;;;;4974160;28;20035;-77
2022/12/02 07:04:33;;;;;;;33.20;20.25;;;;;;;;;;4968251;28;20037;-77
2022/12/02 07:07:19;;;;;;;31.45;19.85;;;;;;;;;;4954056;28;20507;-77
2022/12/02 07:09:52;;;;;;;31.63;19.73;;;;;;;;;;4972496;28;20405;-77
2022/12/02 07:12:19;;;;;;;26.10;19.00;;;;;;;;;;4971625;28;20031;-77
2022/12/02 07:14:47;;;;;;;28.48;21.63;;;;;;;;;;4971866;28;20042;-77
2022/12/02 07:17:24;;;;;;;27.35;19.35;;;;;;;;;;4973695;28;20027;-75
2022/12/02 07:19:53;;;;;;;29.60;20.27;;;;;;;;;;4973850;28;20042;-76
2022/12/02 07:22:28;;;;;;;34.38;18.83;;;;;;;;;;4974818;28;20043;-77
2022/12/02 07:24:57;;;;;;;32.75;18.35;;;;;;;;;;4971800;28;20042;-77
2022/12/02 07:27:24;;;;;;;27.67;18.70;;;;;;;;;;4971757;28;20042;-75
2022/12/02 07:29:54;;;;;;;33.13;19.38;;;;;;;;;;4963538;28;20413;-76
2022/12/02 07:32:19;;;;;;;32.20;19.20;;;;;;;;;;4971741;28;20481;-76
2022/12/02 07:34:50;;;;;;;27.25;17.58;;;;;;;;;;4961668;28;20058;-76
2022/12/02 07:37:21;;;;;;;28.13;19.63;;;;;;;;;;4967662;28;20042;-76
2022/12/02 07:39:49;;;;;;;23.75;19.45;;;;;;;;;;4977935;28;20039;-76
2022/12/02 07:42:15;;;;;;;32.80;20.25;;;;;;;;;;4970113;28;20126;-76
2022/12/02 07:44:45;;;;;;;29.05;19.90;;;;;;;;;;4969998;28;20034;-76
2022/12/02 07:47:13;;;;;;;24.20;20.20;;;;;;;;;;4970751;28;20041;-76
2022/12/02 07:49:39;;;;;;;25.40;17.25;;;;;;;;;;4970282;28;20026;-76
2022/12/02 07:52:05;;;;;;;30.42;21.23;;;;;;;;;;4951526;28;20375;-76
2022/12/02 07:54:33;;;;;;;28.13;21.27;;;;;;;;;;4979216;28;20049;-76
2022/12/02 07:57:02;;;;;;;23.77;18.00;;;;;;;;;;4974746;28;20048;-76
2022/12/02 07:59:28;;;;;;;32.65;18.33;;;;;;;;;;4963007;28;20031;-76
2022/12/02 08:01:56;;;;;;;34.17;20.17;;;;;;;;;;4986115;28;20397;-76
2022/12/02 08:04:24;;;;;;;27.00;18.05;;;;;;;;;;4970231;28;20035;-76
2022/12/02 08:06:52;;;;;;;24.98;17.67;;;;;;;;;;4955122;28;20035;-76
2022/12/02 08:09:18;;;;;;;28.50;17.55;;;;;;;;;;4969601;28;20081;-76
2022/12/02 08:11:44;;;;;;;29.80;18.80;;;;;;;;;;4968153;28;20050;-76
2022/12/02 08:14:10;;;;;;;25.45;17.58;;;;;;;;;;4972168;28;20427;-76
2022/12/02 08:16:40;;;;;;;26.73;18.27;;;;;;;;;;4962563;28;20516;-76
2022/12/02 08:19:06;;;;;;;26.30;19.17;;;;;;;;;;4951453;28;20042;-75
2022/12/02 08:21:35;;;;;;;28.77;18.30;;;;;;;;;;4969370;28;20304;-76
2022/12/02 08:24:04;;;;;;;22.45;18.25;;;;;;;;;;4968816;28;20043;-76
2022/12/02 08:26:37;;;;;;;25.65;15.73;;;;;;;;;;4968502;28;20038;-76
2022/12/02 08:29:03;;;;;;;23.02;16.15;;;;;;;;;;4978796;28;20038;-75
2022/12/02 08:31:33;;;;;;;26.30;16.65;;;;;;;;;;4968720;28;20030;-76
2022/12/02 08:33:59;;;;;;;28.23;16.67;;;;;;;;;;4972482;28;20042;-77
2022/12/02 08:36:25;;;;;;;26.80;19.88;;;;;;;;;;4969932;28;20022;-77
2022/12/02 08:38:51;;;;;;;23.85;17.65;;;;;;;;;;4969025;28;20039;-78
2022/12/02 08:41:24;;;;;;;29.67;19.58;;;;;;;;;;4972794;28;20030;-78
2022/12/02 08:43:52;;;;;;;29.75;20.25;;;;;;;;;;4969641;28;20035;-78
2022/12/02 08:46:18;;;;;;;26.77;17.95;;;;;;;;;;4968270;28;20046;-77
2022/12/02 08:48:48;;;;;;;30.98;18.55;;;;;;;;;;4964775;28;20035;-78
2022/12/02 08:51:17;;;;;;;29.17;17.63;;;;;;;;;;4972574;28;20026;-78
2022/12/02 08:53:43;;;;;;;28.80;18.38;;;;;;;;;;4975181;28;20030;-78
2022/12/02 08:56:15;;;;;;;24.25;16.35;;;;;;;;;;4971861;28;20053;-78
2022/12/02 08:58:41;;;;;;;21.25;15.98;;;;;;;;;;4962111;28;20035;-78
2022/12/02 09:01:14;;;;;;;22.20;15.98;;;;;;;;;;4969912;28;20045;-78
2022/12/02 09:03:45;;;;;;;23.15;16.98;;;;;;;;;;4970270;28;20097;-78
2022/12/02 09:06:11;;;;;;;23.75;14.82;;;;;;;;;;4968670;28;20026;-78
2022/12/02 09:08:43;;;;;;;17.10;13.88;;;;;;;;;;4971524;28;20019;-78
2022/12/02 09:11:09;;;;;;;19.63;13.25;;;;;;;;;;4963799;28;20031;-78
2022/12/02 09:13:37;;;;;;;20.33;13.20;;;;;;;;;;4965545;28;20099;-77
2022/12/02 09:16:08;;;;;;;17.35;11.88;;;;;;;;;;4969441;28;20030;-77
2022/12/02 09:18:34;;;;;;;22.85;15.20;;;;;;;;;;4968815;28;20031;-77
2022/12/02 09:20:59;;;;;;;19.77;13.88;;;;;;;;;;4970441;28;20054;-77
2022/12/02 09:23:28;;;;;;;22.27;15.23;;;;;;;;;;4970965;28;20034;-77
2022/12/02 09:25:54;;;;;;;32.42;17.17;;;;;;;;;;4967931;28;20045;-78
2022/12/02 09:28:25;;;;;;;26.35;15.50;;;;;;;;;;4969147;28;20523;-78
2022/12/02 09:30:53;;;;;;;20.58;13.40;;;;;;;;;;4969974;28;20366;-77
2022/12/02 09:33:19;;;;;;;21.52;13.90;;;;;;;;;;4970816;28;20049;-78
2022/12/02 09:35:48;;;;;;;18.92;12.57;;;;;;;;;;4961417;28;20470;-78
2022/12/02 09:38:16;;;;;;;22.13;14.85;;;;;;;;;;4970748;28;20027;-77
2022/12/02 09:40:41;;;;;;;24.08;13.65;;;;;;;;;;4971167;28;20030;-78
2022/12/02 09:43:07;;;;;;;18.95;12.80;;;;;;;;;;4971198;28;20109;-77
2022/12/02 09:45:36;;;;;;;24.83;16.08;;;;;;;;;;4969186;28;20030;-78
2022/12/02 09:48:04;;;;;;;19.70;16.35;;;;;;;;;;4968753;28;20045;-77
2022/12/02 09:50:30;;;;;;;24.23;15.48;;;;;;;;;;4965905;28;20288;-78
2022/12/02 09:52:57;;;;;;;19.90;13.70;;;;;;;;;;4966711;28;20022;-78
2022/12/02 09:55:23;;;;;;;20.42;14.98;;;;;;;;;;4969546;28;20030;-77
2022/12/02 09:57:49;;;;;;;22.60;14.32;;;;;;;;;;4962215;28;20461;-77
2022/12/02 10:00:21;;;;;;;27.60;16.15;;;;;;;;;;4969988;28;20489;-77
2022/12/02 10:02:50;;;;;;;19.92;13.95;;;;;;;;;;4964866;28;20505;-77
2022/12/02 10:05:28;;;;;;;16.60;12.20;;;;;;;;;;4984124;28;20262;-78
2022/12/02 10:08:00;;;;;;;23.55;13.90;;;;;;;;;;4968186;28;20505;-78
2022/12/02 10:10:38;;;;;;;19.55;17.13;;;;;;;;;;4969702;28;20039;-78
2022/12/02 10:13:03;;;;;;;25.35;16.52;;;;;;;;;;4967353;28;20050;-78
2022/12/02 10:15:34;;;;;;;24.02;15.95;;;;;;;;;;4965861;28;20031;-78
2022/12/02 10:18:08;;;;;;;29.55;15.77;;;;;;;;;;4965314;28;20038;-78
2022/12/02 10:20:39;;;;;;;20.67;16.25;;;;;;;;;;4967296;28;20524;-78
2022/12/02 10:23:11;;;;;;;20.90;15.82;;;;;;;;;;4967481;28;20039;-78
2022/12/02 10:25:40;;;;;;;22.10;13.18;;;;;;;;;;4953204;28;20121;-78
2022/12/02 10:28:16;;;;;;;24.85;16.90;;;;;;;;;;4967719;28;20385;-78
2022/12/02 10:30:50;;;;;;;20.02;13.85;;;;;;;;;;4971454;28;20404;-78
2022/12/02 10:33:21;;;;;;;17.60;13.70;;;;;;;;;;4972528;28;20507;-74
2022/12/02 10:35:48;;;;;;;18.65;12.52;;;;;;;;;;4966719;28;20031;-77
2022/12/02 10:38:31;;;;;;;18.00;13.65;;;;;;;;;;4963780;28;20030;-77
2022/12/02 10:41:15;;;;;;;19.13;12.35;;;;;;;;;;4973138;28;20038;-77
2022/12/02 10:43:43;;;;;;;20.95;14.10;;;;;;;;;;4965077;28;20034;-77
2022/12/02 10:46:13;;;;;;;21.67;14.27;;;;;;;;;;4972373;28;20054;-77
2022/12/02 10:48:41;;;;;;;17.30;14.73;;;;;;;;;;4973567;28;20038;-77
2022/12/02 10:51:14;;;;;;;27.27;15.93;;;;;;;;;;4974569;28;20489;-77
2022/12/02 10:53:40;;;;;;;25.52;18.10;;;;;;;;;;4958803;28;20045;-77
2022/12/02 10:56:13;;;;;;;24.35;14.93;;;;;;;;;;4974133;28;20038;-77
2022/12/02 10:58:39;;;;;;;15.60;10.68;;;;;;;;;;4974836;28;20041;-76
2022/12/02 11:01:08;;;;;;;17.92;12.48;;;;;;;;;;4974205;28;20034;-77
2022/12/02 11:03:36;;;;;;;17.13;11.63;;;;;;;;;;4974628;28;20023;-76
2022/12/02 11:06:11;;;;;;;13.65;10.32;;;;;;;;;;4974810;28;20037;-77
2022/12/02 11:08:41;;;;;;;12.85;9.73;;;;;;;;;;4973933;28;20381;-77
2022/12/02 11:11:14;;;;;;;14.77;10.00;;;;;;;;;;4973914;28;20035;-77
2022/12/02 11:13:50;;;;;;;17.48;10.88;;;;;;;;;;4975989;28;20031;-78
2022/12/02 11:16:28;;;;;;;13.35;10.68;;;;;;;;;;4973938;28;20528;-78
2022/12/02 11:19:11;;;;;;;13.35;9.65;;;;;;;;;;4958025;28;20054;-77
2022/12/02 11:21:44;;;;;;;13.63;11.25;;;;;;;;;;4972888;28;20042;-77
2022/12/02 11:24:21;;;;;;;14.20;8.82;;;;;;;;;;4975679;28;20030;-77
2022/12/02 11:27:03;;;;;;;12.32;8.00;;;;;;;;;;4957587;28;20035;-77
2022/12/02 11:29:36;;;;;;;13.52;7.68;;;;;;;;;;4974203;28;20027;-77
2022/12/02 11:32:16;;;;;;;9.37;8.50;;;;;;;;;;4975629;28;20035;-77
2022/12/02 11:34:46;;;;;;;9.82;8.40;;;;;;;;;;4972887;28;20046;-77
2022/12/02 11:37:27;;;;;;;6.97;6.25;;;;;;;;;;4975017;28;20035;-77
2022/12/02 11:39:55;;;;;;;8.23;6.68;;;;;;;;;;4972784;28;20038;-77
2022/12/02 11:42:29;;;;;;;7.13;5.90;;;;;;;;;;4975466;28;20026;-77
2022/12/02 11:45:10;;;;;;;10.25;7.28;;;;;;;;;;4972626;28;20047;-76
2022/12/02 11:47:39;;;;;;;9.23;6.85;;;;;;;;;;4973610;28;20042;-77
2022/12/02 11:50:16;;;;;;;7.50;6.05;;;;;;;;;;4983826;28;20045;-77
2022/12/02 11:52:44;;;;;;;8.90;6.00;;;;;;;;;;4975290;28;20027;-77
2022/12/02 11:55:27;;;;;;;8.43;6.60;;;;;;;;;;4972542;28;20413;-77
2022/12/02 11:57:55;;;;;;;8.02;5.70;;;;;;;;;;4964178;28;20039;-77
2022/12/02 12:00:25;;;;;;;6.75;4.45;;;;;;;;;;4972532;28;20042;-77
2022/12/02 12:03:13;;;;;;;6.20;5.45;;;;;;;;;;4974141;28;20047;-77
2022/12/02 12:05:40;;;;;;;9.60;6.18;;;;;;;;;;4973835;28;20037;-77
2022/12/02 12:08:08;;;;;;;7.95;6.65;;;;;;;;;;4972021;28;20030;-77
2022/12/02 12:10:41;;;;;;;6.45;4.32;;;;;;;;;;4974075;28;20038;-76
2022/12/02 12:13:21;;;;;;;4.22;3.88;;;;;;;;;;4953700;28;20034;-77
2022/12/02 12:15:49;;;;;;;6.57;5.20;;;;;;;;;;4946094;28;20103;-77
2022/12/02 12:18:34;;;;;;;6.63;5.03;;;;;;;;;;4973121;28;20039;-77
2022/12/02 12:21:02;;;;;;;6.80;3.95;;;;;;;;;;4962683;28;20042;-77
2022/12/02 12:23:43;;;;;;;5.60;3.92;;;;;;;;;;4971861;28;20389;-77
2022/12/02 12:26:29;;;;;;;4.68;4.03;;;;;;;;;;4970371;28;20049;-77
2022/12/02 12:29:01;;;;;;;4.97;3.92;;;;;;;;;;4953801;28;20042;-76
2022/12/02 12:31:27;;;;;;;5.55;3.63;;;;;;;;;;4954911;28;20042;-78
2022/12/02 12:33:53;;;;;;;4.95;4.45;;;;;;;;;;4971424;28;20034;-77
2022/12/02 12:36:19;;;;;;;6.03;3.85;;;;;;;;;;4972759;28;20042;-77
2022/12/02 12:38:45;;;;;;;5.43;4.93;;;;;;;;;;4972917;28;20035;-77
2022/12/02 12:41:13;;;;;;;5.10;4.60;;;;;;;;;;4973540;28;20130;-78
2022/12/02 12:43:40;;;;;;;6.10;4.97;;;;;;;;;;4972817;28;20042;-77
2022/12/02 12:46:06;;;;;;;3.20;2.45;;;;;;;;;;4967240;23;20019;-70
2022/12/02 12:48:32;;;;;;;6.38;4.50;;;;;;;;;;4951413;28;20043;-70
2022/12/02 12:50:58;;;;;;;6.07;5.30;;;;;;;;;;4971745;28;20378;-71
2022/12/02 12:53:25;;;;;;;7.57;4.28;;;;;;;;;;4960153;28;20036;-70
2022/12/02 12:55:55;;;;;;;5.10;3.75;;;;;;;;;;4970986;28;20070;-71
2022/12/02 12:58:24;;;;;;;5.88;3.53;;;;;;;;;;4966199;28;20039;-71
2022/12/02 13:00:49;;;;;;;5.57;4.25;;;;;;;;;;4954223;28;20038;-71
2022/12/02 13:03:20;;;;;;;7.57;5.63;;;;;;;;;;4966153;28;20063;-70
2022/12/02 13:05:46;;;;;;;6.55;4.97;;;;;;;;;;4973517;28;20042;-70
2022/12/02 13:08:12;;;;;;;7.03;6.07;;;;;;;;;;4969762;28;20441;-70
2022/12/02 13:10:38;;;;;;;4.57;3.55;;;;;;;;;;4942772;28;20437;-70
2022/12/02 13:13:04;;;;;;;6.82;4.60;;;;;;;;;;4968095;28;20382;-70
2022/12/02 13:15:35;;;;;;;7.00;4.72;;;;;;;;;;4965930;28;20035;-71
2022/12/02 13:18:03;;;;;;;5.95;4.75;;;;;;;;;;4968237;28;20419;-71
2022/12/02 13:20:29;;;;;;;7.05;5.50;;;;;;;;;;4963644;28;20060;-70
2022/12/02 13:22:59;;;;;;;6.18;4.38;;;;;;;;;;4966544;28;20043;-70
2022/12/02 13:25:30;;;;;;;6.00;4.45;;;;;;;;;;4966597;28;20026;-70
2022/12/02 13:27:58;;;;;;;5.45;4.18;;;;;;;;;;4962873;28;20223;-71
2022/12/02 13:30:29;;;;;;;5.78;4.95;;;;;;;;;;4970151;28;20035;-71
2022/12/02 13:32:55;;;;;;;7.00;4.90;;;;;;;;;;4961926;28;20038;-70
2022/12/02 13:35:20;;;;;;;4.35;3.85;;;;;;;;;;4971222;28;20043;-70
2022/12/02 13:37:49;;;;;;;6.95;4.90;;;;;;;;;;4973254;28;20042;-70
2022/12/02 13:40:16;;;;;;;4.82;4.00;;;;;;;;;;4967409;28;20118;-70
2022/12/02 13:42:42;;;;;;;6.05;4.25;;;;;;;;;;4963460;28;20042;-70
2022/12/02 13:45:08;;;;;;;5.65;4.18;;;;;;;;;;4968628;28;20431;-70
2022/12/02 13:47:37;;;;;;;7.78;6.10;;;;;;;;;;4972141;28;20049;-70
2022/12/02 13:50:06;;;;;;;5.57;4.72;;;;;;;;;;4969471;28;20030;-71
2022/12/02 13:52:31;;;;;;;5.97;4.60;;;;;;;;;;4965263;28;20386;-71
2022/12/02 13:54:59;;;;;;;6.00;3.90;;;;;;;;;;4964834;28;20050;-71
2022/12/02 13:57:25;;;;;;;7.00;5.28;;;;;;;;;;4964771;28;20026;-70
2022/12/02 13:59:53;;;;;;;7.03;4.75;;;;;;;;;;4968981;28;20509;-70
2022/12/02 14:02:22;;;;;;;6.57;5.47;;;;;;;;;;4955353;28;20039;-70
2022/12/02 14:04:48;;;;;;;7.00;4.97;;;;;;;;;;4964072;28;20034;-70
2022/12/02 14:07:16;;;;;;;6.93;6.25;;;;;;;;;;4964558;28;20404;-70
2022/12/02 14:09:44;;;;;;;6.32;5.10;;;;;;;;;;4958788;28;20135;-70
2022/12/02 14:12:15;;;;;;;6.45;5.82;;;;;;;;;;4969383;28;20100;-70
2022/12/02 14:14:41;;;;;;;10.80;7.20;;;;;;;;;;4971194;28;20027;-70
2022/12/02 14:17:12;;;;;;;10.57;6.00;;;;;;;;;;4966785;28;20551;-70
2022/12/02 14:19:43;;;;;;;9.88;5.93;;;;;;;;;;4952947;28;20039;-71
2022/12/02 14:22:11;;;;;;;7.32;5.82;;;;;;;;;;4947947;28;20053;-70
2022/12/02 14:24:37;;;;;;;8.95;6.72;;;;;;;;;;4953619;28;20040;-70
2022/12/02 14:27:03;;;;;;;10.68;6.50;;;;;;;;;;4964838;28;20090;-71
2022/12/02 14:29:31;;;;;;;7.18;6.47;;;;;;;;;;4956715;28;20402;-71
2022/12/02 14:31:59;;;;;;;8.90;5.93;;;;;;;;;;4963014;28;20035;-70
2022/12/02 14:34:25;;;;;;;8.23;6.95;;;;;;;;;;4961118;28;20147;-70
2022/12/02 14:36:53;;;;;;;8.43;6.45;;;;;;;;;;4957882;28;20039;-70
2022/12/02 14:39:21;;;;;;;8.35;6.43;;;;;;;;;;4966899;28;20054;-70
2022/12/02 14:41:47;;;;;;;6.38;5.10;;;;;;;;;;4971612;28;20035;-70